sensor_id;sensor_type;location;lat;lon;timestamp;P1;durP1;ratioP1;P2;durP2;ratioP2
17510;SDS011;8873;48.818;9.422;2023-07-22T00:00:46;7.78;;;3.22;;
17510;SDS011;8873;48.818;9.422;2023-07-22T00:03:14;4.38;;;3.63;;
17510;SDS011;8873;48.818;9.422;2023-07-22T00:05:42;7.28;;;3.58;;
17510;SDS011;8873;48.818;9.422;2023-07-22T00:08:10;3.88;;;3.42;;
17510;SDS011;8873;48.818;9.422;2023-07-22T00:10:41;3.85;;;3.40;;
17510;SDS011;8873;48.818;9.422;2023-07-22T00:13:09;3.83;;;3.25;;
17510;SDS011;8873;48.818;9.422;2023-07-22T00:15:37;5.45;;;3.50;;
17510;SDS011;8873;48.818;9.422;2023-07-22T00:18:05;4.00;;;3.10;;
17510;SDS011;8873;48.818;9.422;2023-07-22T00:20:33;4.55;;;3.10;;
17510;SDS011;8873;48.818;9.422;2023-07-22T00:23:01;4.18;;;3.72;;
17510;SDS011;8873;48.818;9.422;2023-07-22T00:25:28;4.82;;;3.63;;
17510;SDS011;8873;48.818;9.422;2023-07-22T00:27:57;11.65;;;3.85;;
17510;SDS011;8873;48.818;9.422;2023-07-22T00:30:25;5.60;;;3.50;;
17510;SDS011;8873;48.818;9.422;2023-07-22T00:32:54;5.20;;;3.40;;
17510;SDS011;8873;48.818;9.422;2023-07-22T00:35:22;7.00;;;3.40;;
17510;SDS011;8873;48.818;9.422;2023-07-22T00:37:49;3.47;;;2.90;;
17510;SDS011;8873;48.818;9.422;2023-07-22T00:40:17;4.43;;;3.45;;
17510;SDS011;8873;48.818;9.422;2023-07-22T00:42:45;4.70;;;2.85;;
17510;SDS011;8873;48.818;9.422;2023-07-22T00:45:14;5.65;;;3.35;;
17510;SDS011;8873;48.818;9.422;2023-07-22T00:47:41;5.30;;;3.25;;
17510;SDS011;8873;48.818;9.422;2023-07-22T00:50:09;5.97;;;3.45;;
17510;SDS011;8873;48.818;9.422;2023-07-22T00:52:37;3.40;;;3.15;;
17510;SDS011;8873;48.818;9.422;2023-07-22T00:55:05;6.03;;;3.60;;
17510;SDS011;8873;48.818;9.422;2023-07-22T00:57:33;4.32;;;3.92;;
17510;SDS011;8873;48.818;9.422;2023-07-22T01:00:01;4.22;;;3.63;;
17510;SDS011;8873;48.818;9.422;2023-07-22T01:02:29;3.58;;;3.30;;
17510;SDS011;8873;48.818;9.422;2023-07-22T01:04:57;6.38;;;3.25;;
17510;SDS011;8873;48.818;9.422;2023-07-22T01:07:25;4.85;;;3.80;;
17510;SDS011;8873;48.818;9.422;2023-07-22T01:09:55;3.67;;;3.22;;
17510;SDS011;8873;48.818;9.422;2023-07-22T01:12:23;4.82;;;3.55;;
17510;SDS011;8873;48.818;9.422;2023-07-22T01:14:50;3.38;;;3.05;;
17510;SDS011;8873;48.818;9.422;2023-07-22T01:17:18;3.88;;;3.40;;
17510;SDS011;8873;48.818;9.422;2023-07-22T01:19:47;4.90;;;3.13;;
17510;SDS011;8873;48.818;9.422;2023-07-22T01:22:15;3.40;;;3.10;;
17510;SDS011;8873;48.818;9.422;2023-07-22T01:24:45;5.53;;;3.45;;
17510;SDS011;8873;48.818;9.422;2023-07-22T01:27:12;7.28;;;3.38;;
17510;SDS011;8873;48.818;9.422;2023-07-22T01:29:40;5.00;;;4.22;;
17510;SDS011;8873;48.818;9.422;2023-07-22T01:32:08;3.80;;;3.28;;
17510;SDS011;8873;48.818;9.422;2023-07-22T01:34:36;5.15;;;3.53;;
17510;SDS011;8873;48.818;9.422;2023-07-22T01:37:03;4.38;;;3.30;;
17510;SDS011;8873;48.818;9.422;2023-07-22T01:39:31;5.30;;;3.72;;
17510;SDS011;8873;48.818;9.422;2023-07-22T01:42:00;4.07;;;3.30;;
17510;SDS011;8873;48.818;9.422;2023-07-22T01:44:28;5.10;;;3.50;;
17510;SDS011;8873;48.818;9.422;2023-07-22T01:46:55;3.35;;;3.05;;
17510;SDS011;8873;48.818;9.422;2023-07-22T01:49:23;5.93;;;3.65;;
17510;SDS011;8873;48.818;9.422;2023-07-22T01:51:51;5.38;;;3.50;;
17510;SDS011;8873;48.818;9.422;2023-07-22T01:54:19;5.15;;;3.65;;
17510;SDS011;8873;48.818;9.422;2023-07-22T01:56:46;4.35;;;3.20;;
17510;SDS011;8873;48.818;9.422;2023-07-22T01:59:15;4.68;;;3.67;;
17510;SDS011;8873;48.818;9.422;2023-07-22T02:01:42;4.80;;;3.25;;
17510;SDS011;8873;48.818;9.422;2023-07-22T02:04:10;3.70;;;3.40;;
17510;SDS011;8873;48.818;9.422;2023-07-22T02:06:38;5.53;;;3.60;;
17510;SDS011;8873;48.818;9.422;2023-07-22T02:09:05;5.47;;;3.13;;
17510;SDS011;8873;48.818;9.422;2023-07-22T02:11:35;3.75;;;3.08;;
17510;SDS011;8873;48.818;9.422;2023-07-22T02:14:02;3.72;;;3.28;;
17510;SDS011;8873;48.818;9.422;2023-07-22T02:16:34;3.85;;;3.33;;
17510;SDS011;8873;48.818;9.422;2023-07-22T02:19:03;3.63;;;3.30;;
17510;SDS011;8873;48.818;9.422;2023-07-22T02:21:30;4.15;;;3.45;;
17510;SDS011;8873;48.818;9.422;2023-07-22T02:23:58;4.78;;;3.45;;
17510;SDS011;8873;48.818;9.422;2023-07-22T02:26:25;7.05;;;3.85;;
17510;SDS011;8873;48.818;9.422;2023-07-22T02:28:53;3.95;;;3.25;;
17510;SDS011;8873;48.818;9.422;2023-07-22T02:31:21;5.47;;;4.07;;
17510;SDS011;8873;48.818;9.422;2023-07-22T02:33:50;5.57;;;4.47;;
17510;SDS011;8873;48.818;9.422;2023-07-22T02:36:18;4.63;;;3.70;;
17510;SDS011;8873;48.818;9.422;2023-07-22T02:38:45;6.93;;;3.78;;
17510;SDS011;8873;48.818;9.422;2023-07-22T02:41:13;6.72;;;3.92;;
17510;SDS011;8873;48.818;9.422;2023-07-22T02:43:40;6.05;;;4.00;;
17510;SDS011;8873;48.818;9.422;2023-07-22T02:46:08;4.35;;;3.78;;
17510;SDS011;8873;48.818;9.422;2023-07-22T02:48:36;7.38;;;3.65;;
17510;SDS011;8873;48.818;9.422;2023-07-22T02:51:07;6.25;;;4.43;;
17510;SDS011;8873;48.818;9.422;2023-07-22T02:53:34;4.20;;;3.75;;
17510;SDS011;8873;48.818;9.422;2023-07-22T02:56:03;7.00;;;3.97;;
17510;SDS011;8873;48.818;9.422;2023-07-22T02:58:31;5.75;;;4.10;;
17510;SDS011;8873;48.818;9.422;2023-07-22T03:00:58;8.25;;;4.35;;
17510;SDS011;8873;48.818;9.422;2023-07-22T03:03:26;5.38;;;4.15;;
17510;SDS011;8873;48.818;9.422;2023-07-22T03:05:54;8.18;;;4.43;;
17510;SDS011;8873;48.818;9.422;2023-07-22T03:08:22;9.00;;;4.00;;
17510;SDS011;8873;48.818;9.422;2023-07-22T03:10:50;6.72;;;4.28;;
17510;SDS011;8873;48.818;9.422;2023-07-22T03:13:18;8.10;;;4.68;;
17510;SDS011;8873;48.818;9.422;2023-07-22T03:15:45;5.68;;;4.30;;
17510;SDS011;8873;48.818;9.422;2023-07-22T03:18:13;4.47;;;4.00;;
17510;SDS011;8873;48.818;9.422;2023-07-22T03:20:40;6.55;;;4.50;;
17510;SDS011;8873;48.818;9.422;2023-07-22T03:23:08;7.75;;;4.65;;
17510;SDS011;8873;48.818;9.422;2023-07-22T03:25:37;8.07;;;4.78;;
17510;SDS011;8873;48.818;9.422;2023-07-22T03:28:05;8.18;;;4.88;;
17510;SDS011;8873;48.818;9.422;2023-07-22T03:30:33;6.40;;;4.82;;
17510;SDS011;8873;48.818;9.422;2023-07-22T03:33:00;6.18;;;4.10;;
17510;SDS011;8873;48.818;9.422;2023-07-22T03:35:28;7.47;;;4.53;;
17510;SDS011;8873;48.818;9.422;2023-07-22T03:37:55;6.35;;;4.65;;
17510;SDS011;8873;48.818;9.422;2023-07-22T03:40:23;7.45;;;4.25;;
17510;SDS011;8873;48.818;9.422;2023-07-22T03:42:57;6.07;;;4.40;;
17510;SDS011;8873;48.818;9.422;2023-07-22T03:45:25;7.68;;;4.60;;
17510;SDS011;8873;48.818;9.422;2023-07-22T03:47:56;5.97;;;4.18;;
17510;SDS011;8873;48.818;9.422;2023-07-22T03:50:25;6.72;;;4.20;;
17510;SDS011;8873;48.818;9.422;2023-07-22T03:52:52;5.35;;;4.25;;
17510;SDS011;8873;48.818;9.422;2023-07-22T03:55:20;7.90;;;4.70;;
17510;SDS011;8873;48.818;9.422;2023-07-22T03:57:47;7.13;;;4.40;;
17510;SDS011;8873;48.818;9.422;2023-07-22T04:00:17;7.60;;;5.40;;
17510;SDS011;8873;48.818;9.422;2023-07-22T04:02:44;6.90;;;5.00;;
17510;SDS011;8873;48.818;9.422;2023-07-22T04:05:12;7.03;;;4.40;;
17510;SDS011;8873;48.818;9.422;2023-07-22T04:07:39;5.93;;;4.65;;
17510;SDS011;8873;48.818;9.422;2023-07-22T04:10:07;6.65;;;4.40;;
17510;SDS011;8873;48.818;9.422;2023-07-22T04:12:35;8.20;;;4.20;;
17510;SDS011;8873;48.818;9.422;2023-07-22T04:15:04;7.32;;;4.53;;
17510;SDS011;8873;48.818;9.422;2023-07-22T04:17:33;7.13;;;4.20;;
17510;SDS011;8873;48.818;9.422;2023-07-22T04:20:00;6.35;;;4.50;;
17510;SDS011;8873;48.818;9.422;2023-07-22T04:22:30;8.25;;;4.63;;
17510;SDS011;8873;48.818;9.422;2023-07-22T04:24:57;5.65;;;4.45;;
17510;SDS011;8873;48.818;9.422;2023-07-22T04:27:26;5.15;;;4.20;;
17510;SDS011;8873;48.818;9.422;2023-07-22T04:29:53;6.82;;;4.63;;
17510;SDS011;8873;48.818;9.422;2023-07-22T04:32:21;5.05;;;4.13;;
17510;SDS011;8873;48.818;9.422;2023-07-22T04:34:50;5.65;;;4.07;;
17510;SDS011;8873;48.818;9.422;2023-07-22T04:37:17;5.43;;;4.07;;
17510;SDS011;8873;48.818;9.422;2023-07-22T04:39:47;6.55;;;4.45;;
17510;SDS011;8873;48.818;9.422;2023-07-22T04:42:15;7.65;;;4.70;;
17510;SDS011;8873;48.818;9.422;2023-07-22T04:44:42;5.82;;;4.07;;
17510;SDS011;8873;48.818;9.422;2023-07-22T04:47:10;8.40;;;4.60;;
17510;SDS011;8873;48.818;9.422;2023-07-22T04:49:38;4.68;;;4.10;;
17510;SDS011;8873;48.818;9.422;2023-07-22T04:52:07;6.10;;;4.18;;
17510;SDS011;8873;48.818;9.422;2023-07-22T04:54:35;7.70;;;4.80;;
17510;SDS011;8873;48.818;9.422;2023-07-22T04:57:03;5.43;;;4.40;;
17510;SDS011;8873;48.818;9.422;2023-07-22T04:59:30;7.63;;;4.60;;
17510;SDS011;8873;48.818;9.422;2023-07-22T05:01:58;8.98;;;4.70;;
17510;SDS011;8873;48.818;9.422;2023-07-22T05:04:25;5.97;;;4.35;;
17510;SDS011;8873;48.818;9.422;2023-07-22T05:06:53;6.28;;;4.57;;
17510;SDS011;8873;48.818;9.422;2023-07-22T05:09:22;5.28;;;4.18;;
17510;SDS011;8873;48.818;9.422;2023-07-22T05:11:50;5.82;;;4.20;;
17510;SDS011;8873;48.818;9.422;2023-07-22T05:14:17;5.05;;;4.20;;
17510;SDS011;8873;48.818;9.422;2023-07-22T05:16:46;5.45;;;4.15;;
17510;SDS011;8873;48.818;9.422;2023-07-22T05:19:13;5.15;;;3.72;;
17510;SDS011;8873;48.818;9.422;2023-07-22T05:21:41;5.13;;;3.95;;
17510;SDS011;8873;48.818;9.422;2023-07-22T05:24:08;9.55;;;3.83;;
17510;SDS011;8873;48.818;9.422;2023-07-22T05:26:37;4.20;;;3.70;;
17510;SDS011;8873;48.818;9.422;2023-07-22T05:29:05;4.03;;;3.63;;
17510;SDS011;8873;48.818;9.422;2023-07-22T05:31:33;4.80;;;3.90;;
17510;SDS011;8873;48.818;9.422;2023-07-22T05:34:01;9.35;;;4.03;;
17510;SDS011;8873;48.818;9.422;2023-07-22T05:36:30;5.70;;;3.88;;
17510;SDS011;8873;48.818;9.422;2023-07-22T05:38:57;6.22;;;4.03;;
17510;SDS011;8873;48.818;9.422;2023-07-22T05:41:25;4.10;;;3.22;;
17510;SDS011;8873;48.818;9.422;2023-07-22T05:43:54;3.88;;;3.42;;
17510;SDS011;8873;48.818;9.422;2023-07-22T05:46:22;4.90;;;4.18;;
17510;SDS011;8873;48.818;9.422;2023-07-22T05:48:50;3.90;;;3.60;;
17510;SDS011;8873;48.818;9.422;2023-07-22T05:51:17;5.70;;;3.38;;
17510;SDS011;8873;48.818;9.422;2023-07-22T05:53:45;5.50;;;3.83;;
17510;SDS011;8873;48.818;9.422;2023-07-22T05:56:13;4.30;;;3.60;;
17510;SDS011;8873;48.818;9.422;2023-07-22T05:58:40;6.60;;;3.63;;
17510;SDS011;8873;48.818;9.422;2023-07-22T06:01:09;4.43;;;3.63;;
17510;SDS011;8873;48.818;9.422;2023-07-22T06:03:38;4.05;;;3.30;;
17510;SDS011;8873;48.818;9.422;2023-07-22T06:06:05;3.85;;;3.33;;
17510;SDS011;8873;48.818;9.422;2023-07-22T06:08:33;4.32;;;3.45;;
17510;SDS011;8873;48.818;9.422;2023-07-22T06:11:01;5.07;;;3.22;;
17510;SDS011;8873;48.818;9.422;2023-07-22T06:13:28;5.95;;;3.50;;
17510;SDS011;8873;48.818;9.422;2023-07-22T06:15:56;3.92;;;3.55;;
17510;SDS011;8873;48.818;9.422;2023-07-22T06:18:25;4.75;;;3.35;;
17510;SDS011;8873;48.818;9.422;2023-07-22T06:20:52;3.42;;;3.13;;
17510;SDS011;8873;48.818;9.422;2023-07-22T06:23:19;3.53;;;3.10;;
17510;SDS011;8873;48.818;9.422;2023-07-22T06:25:47;3.40;;;3.10;;
17510;SDS011;8873;48.818;9.422;2023-07-22T06:28:14;3.33;;;2.92;;
17510;SDS011;8873;48.818;9.422;2023-07-22T06:30:42;3.55;;;3.08;;
17510;SDS011;8873;48.818;9.422;2023-07-22T06:33:10;4.57;;;3.47;;
17510;SDS011;8873;48.818;9.422;2023-07-22T06:35:39;3.83;;;3.13;;
17510;SDS011;8873;48.818;9.422;2023-07-22T06:38:06;3.75;;;3.05;;
17510;SDS011;8873;48.818;9.422;2023-07-22T06:40:34;3.75;;;3.13;;
17510;SDS011;8873;48.818;9.422;2023-07-22T06:43:01;3.55;;;3.20;;
17510;SDS011;8873;48.818;9.422;2023-07-22T06:45:29;2.45;;;2.35;;
17510;SDS011;8873;48.818;9.422;2023-07-22T06:47:56;3.58;;;2.88;;
17510;SDS011;8873;48.818;9.422;2023-07-22T06:50:24;3.55;;;2.97;;
17510;SDS011;8873;48.818;9.422;2023-07-22T06:52:53;3.10;;;2.80;;
17510;SDS011;8873;48.818;9.422;2023-07-22T06:55:20;5.15;;;2.70;;
17510;SDS011;8873;48.818;9.422;2023-07-22T06:57:48;2.60;;;2.40;;
17510;SDS011;8873;48.818;9.422;2023-07-22T07:00:16;3.38;;;2.60;;
17510;SDS011;8873;48.818;9.422;2023-07-22T07:02:45;2.55;;;2.45;;
17510;SDS011;8873;48.818;9.422;2023-07-22T07:05:19;3.13;;;2.42;;
17510;SDS011;8873;48.818;9.422;2023-07-22T07:07:48;2.78;;;2.40;;
17510;SDS011;8873;48.818;9.422;2023-07-22T07:10:22;2.70;;;2.50;;
17510;SDS011;8873;48.818;9.422;2023-07-22T07:12:57;2.60;;;2.33;;
17510;SDS011;8873;48.818;9.422;2023-07-22T07:15:25;2.97;;;2.35;;
17510;SDS011;8873;48.818;9.422;2023-07-22T07:17:52;2.50;;;2.30;;
17510;SDS011;8873;48.818;9.422;2023-07-22T07:20:20;2.58;;;2.38;;
17510;SDS011;8873;48.818;9.422;2023-07-22T07:22:47;3.20;;;2.90;;
17510;SDS011;8873;48.818;9.422;2023-07-22T07:25:15;4.15;;;2.22;;
17510;SDS011;8873;48.818;9.422;2023-07-22T07:27:44;2.70;;;2.20;;
17510;SDS011;8873;48.818;9.422;2023-07-22T07:30:11;4.90;;;2.60;;
17510;SDS011;8873;48.818;9.422;2023-07-22T07:32:39;5.68;;;2.47;;
17510;SDS011;8873;48.818;9.422;2023-07-22T07:35:07;2.50;;;2.20;;
17510;SDS011;8873;48.818;9.422;2023-07-22T07:37:35;5.05;;;2.00;;
17510;SDS011;8873;48.818;9.422;2023-07-22T07:40:02;5.38;;;2.40;;
17510;SDS011;8873;48.818;9.422;2023-07-22T07:42:30;5.25;;;2.70;;
17510;SDS011;8873;48.818;9.422;2023-07-22T07:44:59;2.78;;;2.50;;
17510;SDS011;8873;48.818;9.422;2023-07-22T07:47:26;4.47;;;3.10;;
17510;SDS011;8873;48.818;9.422;2023-07-22T07:49:54;2.53;;;2.28;;
17510;SDS011;8873;48.818;9.422;2023-07-22T07:52:22;2.33;;;2.20;;
17510;SDS011;8873;48.818;9.422;2023-07-22T07:54:50;5.53;;;2.40;;
17510;SDS011;8873;48.818;9.422;2023-07-22T07:57:17;2.65;;;2.38;;
17510;SDS011;8873;48.818;9.422;2023-07-22T07:59:45;2.42;;;2.20;;
17510;SDS011;8873;48.818;9.422;2023-07-22T08:02:13;4.05;;;2.00;;
17510;SDS011;8873;48.818;9.422;2023-07-22T08:04:41;2.33;;;2.17;;
17510;SDS011;8873;48.818;9.422;2023-07-22T08:07:09;2.20;;;2.10;;
17510;SDS011;8873;48.818;9.422;2023-07-22T08:09:36;2.40;;;2.20;;
17510;SDS011;8873;48.818;9.422;2023-07-22T08:12:04;2.60;;;2.40;;
17510;SDS011;8873;48.818;9.422;2023-07-22T08:14:31;2.40;;;2.20;;
17510;SDS011;8873;48.818;9.422;2023-07-22T08:16:59;2.20;;;2.10;;
17510;SDS011;8873;48.818;9.422;2023-07-22T08:19:28;3.13;;;2.20;;
17510;SDS011;8873;48.818;9.422;2023-07-22T08:21:55;2.22;;;2.10;;
17510;SDS011;8873;48.818;9.422;2023-07-22T08:24:23;3.92;;;2.20;;
17510;SDS011;8873;48.818;9.422;2023-07-22T08:26:50;3.53;;;2.50;;
17510;SDS011;8873;48.818;9.422;2023-07-22T08:29:18;2.53;;;2.35;;
17510;SDS011;8873;48.818;9.422;2023-07-22T08:31:46;1.85;;;1.75;;
17510;SDS011;8873;48.818;9.422;2023-07-22T08:34:13;2.70;;;2.28;;
17510;SDS011;8873;48.818;9.422;2023-07-22T08:36:42;2.40;;;2.17;;
17510;SDS011;8873;48.818;9.422;2023-07-22T08:39:10;2.40;;;2.10;;
17510;SDS011;8873;48.818;9.422;2023-07-22T08:41:37;3.92;;;2.22;;
17510;SDS011;8873;48.818;9.422;2023-07-22T08:44:05;3.72;;;1.75;;
17510;SDS011;8873;48.818;9.422;2023-07-22T08:46:35;1.90;;;1.80;;
17510;SDS011;8873;48.818;9.422;2023-07-22T08:49:04;2.28;;;2.15;;
17510;SDS011;8873;48.818;9.422;2023-07-22T08:51:32;2.67;;;2.47;;
17510;SDS011;8873;48.818;9.422;2023-07-22T08:54:01;2.47;;;2.10;;
17510;SDS011;8873;48.818;9.422;2023-07-22T08:56:37;2.40;;;2.20;;
17510;SDS011;8873;48.818;9.422;2023-07-22T08:59:05;4.65;;;1.88;;
17510;SDS011;8873;48.818;9.422;2023-07-22T09:01:33;1.92;;;1.80;;
17510;SDS011;8873;48.818;9.422;2023-07-22T09:04:02;2.97;;;1.98;;
17510;SDS011;8873;48.818;9.422;2023-07-22T09:06:31;3.20;;;2.15;;
17510;SDS011;8873;48.818;9.422;2023-07-22T09:08:59;3.67;;;2.00;;
17510;SDS011;8873;48.818;9.422;2023-07-22T09:11:31;2.03;;;1.90;;
17510;SDS011;8873;48.818;9.422;2023-07-22T09:13:59;1.95;;;1.85;;
17510;SDS011;8873;48.818;9.422;2023-07-22T09:16:27;1.65;;;1.55;;
17510;SDS011;8873;48.818;9.422;2023-07-22T09:18:58;1.98;;;1.80;;
17510;SDS011;8873;48.818;9.422;2023-07-22T09:21:25;2.65;;;1.98;;
17510;SDS011;8873;48.818;9.422;2023-07-22T09:23:54;2.28;;;1.95;;
17510;SDS011;8873;48.818;9.422;2023-07-22T09:26:22;2.17;;;1.80;;
17510;SDS011;8873;48.818;9.422;2023-07-22T09:28:54;5.30;;;2.00;;
17510;SDS011;8873;48.818;9.422;2023-07-22T09:31:22;1.63;;;1.60;;
17510;SDS011;8873;48.818;9.422;2023-07-22T09:33:50;1.90;;;1.80;;
17510;SDS011;8873;48.818;9.422;2023-07-22T09:36:20;3.65;;;1.70;;
17510;SDS011;8873;48.818;9.422;2023-07-22T09:38:59;1.92;;;1.83;;
17510;SDS011;8873;48.818;9.422;2023-07-22T09:41:27;1.88;;;1.60;;
17510;SDS011;8873;48.818;9.422;2023-07-22T09:43:57;2.22;;;2.03;;
17510;SDS011;8873;48.818;9.422;2023-07-22T09:46:30;2.30;;;2.10;;
17510;SDS011;8873;48.818;9.422;2023-07-22T09:49:01;2.42;;;1.88;;
17510;SDS011;8873;48.818;9.422;2023-07-22T09:51:32;7.38;;;2.33;;
17510;SDS011;8873;48.818;9.422;2023-07-22T09:54:06;2.60;;;2.03;;
17510;SDS011;8873;48.818;9.422;2023-07-22T09:56:42;2.53;;;2.33;;
17510;SDS011;8873;48.818;9.422;2023-07-22T09:59:10;4.93;;;2.38;;
17510;SDS011;8873;48.818;9.422;2023-07-22T10:01:38;2.78;;;2.53;;
17510;SDS011;8873;48.818;9.422;2023-07-22T10:04:06;10.07;;;2.70;;
17510;SDS011;8873;48.818;9.422;2023-07-22T10:06:34;3.08;;;2.13;;
17510;SDS011;8873;48.818;9.422;2023-07-22T10:09:03;2.85;;;2.13;;
17510;SDS011;8873;48.818;9.422;2023-07-22T10:11:33;4.57;;;1.88;;
17510;SDS011;8873;48.818;9.422;2023-07-22T10:14:01;5.47;;;2.55;;
17510;SDS011;8873;48.818;9.422;2023-07-22T10:16:30;7.68;;;1.90;;
17510;SDS011;8873;48.818;9.422;2023-07-22T10:18:59;3.63;;;1.90;;
17510;SDS011;8873;48.818;9.422;2023-07-22T10:21:26;2.13;;;1.98;;
17510;SDS011;8873;48.818;9.422;2023-07-22T10:23:57;1.67;;;1.58;;
17510;SDS011;8873;48.818;9.422;2023-07-22T10:26:24;2.05;;;1.95;;
17510;SDS011;8873;48.818;9.422;2023-07-22T10:29:12;1.80;;;1.73;;
17510;SDS011;8873;48.818;9.422;2023-07-22T10:31:41;2.45;;;1.80;;
17510;SDS011;8873;48.818;9.422;2023-07-22T10:34:08;3.58;;;2.08;;
17510;SDS011;8873;48.818;9.422;2023-07-22T10:36:36;1.70;;;1.60;;
17510;SDS011;8873;48.818;9.422;2023-07-22T10:39:04;1.98;;;1.88;;
17510;SDS011;8873;48.818;9.422;2023-07-22T10:41:31;2.38;;;2.13;;
17510;SDS011;8873;48.818;9.422;2023-07-22T10:43:59;2.25;;;2.10;;
17510;SDS011;8873;48.818;9.422;2023-07-22T10:46:30;2.95;;;1.80;;
17510;SDS011;8873;48.818;9.422;2023-07-22T10:49:08;1.77;;;1.67;;
17510;SDS011;8873;48.818;9.422;2023-07-22T10:51:37;2.38;;;2.10;;
17510;SDS011;8873;48.818;9.422;2023-07-22T10:54:10;4.57;;;1.90;;
17510;SDS011;8873;48.818;9.422;2023-07-22T10:56:38;1.70;;;1.60;;
17510;SDS011;8873;48.818;9.422;2023-07-22T10:59:05;2.05;;;1.90;;
17510;SDS011;8873;48.818;9.422;2023-07-22T11:01:36;2.05;;;1.73;;
17510;SDS011;8873;48.818;9.422;2023-07-22T11:04:20;7.15;;;2.25;;
17510;SDS011;8873;48.818;9.422;2023-07-22T11:06:52;1.90;;;1.80;;
17510;SDS011;8873;48.818;9.422;2023-07-22T11:09:33;2.83;;;1.80;;
17510;SDS011;8873;48.818;9.422;2023-07-22T11:12:03;1.65;;;1.60;;
17510;SDS011;8873;48.818;9.422;2023-07-22T11:14:31;2.00;;;1.90;;
17510;SDS011;8873;48.818;9.422;2023-07-22T11:16:59;1.77;;;1.67;;
17510;SDS011;8873;48.818;9.422;2023-07-22T11:19:29;4.25;;;2.47;;
17510;SDS011;8873;48.818;9.422;2023-07-22T11:21:57;2.10;;;1.90;;
17510;SDS011;8873;48.818;9.422;2023-07-22T11:24:25;5.90;;;2.83;;
17510;SDS011;8873;48.818;9.422;2023-07-22T11:26:54;2.13;;;1.88;;
17510;SDS011;8873;48.818;9.422;2023-07-22T11:29:22;8.70;;;2.35;;
17510;SDS011;8873;48.818;9.422;2023-07-22T11:31:56;4.50;;;1.80;;
17510;SDS011;8873;48.818;9.422;2023-07-22T11:34:41;1.55;;;1.50;;
17510;SDS011;8873;48.818;9.422;2023-07-22T11:37:10;2.85;;;2.65;;
17510;SDS011;8873;48.818;9.422;2023-07-22T11:39:39;2.83;;;2.05;;
17510;SDS011;8873;48.818;9.422;2023-07-22T11:42:08;2.72;;;2.35;;
17510;SDS011;8873;48.818;9.422;2023-07-22T11:44:36;3.45;;;1.92;;
17510;SDS011;8873;48.818;9.422;2023-07-22T11:47:04;1.88;;;1.77;;
17510;SDS011;8873;48.818;9.422;2023-07-22T11:49:34;1.85;;;1.75;;
17510;SDS011;8873;48.818;9.422;2023-07-22T11:52:04;2.33;;;1.90;;
17510;SDS011;8873;48.818;9.422;2023-07-22T11:54:34;1.75;;;1.65;;
17510;SDS011;8873;48.818;9.422;2023-07-22T11:57:11;1.85;;;1.70;;
17510;SDS011;8873;48.818;9.422;2023-07-22T11:59:44;4.03;;;1.85;;
17510;SDS011;8873;48.818;9.422;2023-07-22T12:02:13;1.98;;;1.88;;
17510;SDS011;8873;48.818;9.422;2023-07-22T12:04:40;1.80;;;1.70;;
17510;SDS011;8873;48.818;9.422;2023-07-22T12:07:22;1.70;;;1.60;;
17510;SDS011;8873;48.818;9.422;2023-07-22T12:09:51;1.95;;;1.85;;
17510;SDS011;8873;48.818;9.422;2023-07-22T12:12:18;1.73;;;1.63;;
17510;SDS011;8873;48.818;9.422;2023-07-22T12:14:46;1.60;;;1.50;;
17510;SDS011;8873;48.818;9.422;2023-07-22T12:17:13;1.98;;;1.88;;
17510;SDS011;8873;48.818;9.422;2023-07-22T12:19:50;4.43;;;2.00;;
17510;SDS011;8873;48.818;9.422;2023-07-22T12:22:18;1.77;;;1.67;;
17510;SDS011;8873;48.818;9.422;2023-07-22T12:24:48;1.42;;;1.42;;
17510;SDS011;8873;48.818;9.422;2023-07-22T12:27:15;1.98;;;1.88;;
17510;SDS011;8873;48.818;9.422;2023-07-22T12:29:43;2.45;;;1.70;;
17510;SDS011;8873;48.818;9.422;2023-07-22T12:32:11;2.00;;;1.90;;
17510;SDS011;8873;48.818;9.422;2023-07-22T12:34:39;2.10;;;1.80;;
17510;SDS011;8873;48.818;9.422;2023-07-22T12:37:07;2.40;;;1.80;;
17510;SDS011;8873;48.818;9.422;2023-07-22T12:39:35;1.70;;;1.60;;
17510;SDS011;8873;48.818;9.422;2023-07-22T12:42:04;2.00;;;1.80;;
17510;SDS011;8873;48.818;9.422;2023-07-22T12:44:32;2.80;;;1.90;;
17510;SDS011;8873;48.818;9.422;2023-07-22T12:47:02;1.70;;;1.60;;
17510;SDS011;8873;48.818;9.422;2023-07-22T12:49:29;1.88;;;1.77;;
17510;SDS011;8873;48.818;9.422;2023-07-22T12:51:57;6.53;;;1.90;;
17510;SDS011;8873;48.818;9.422;2023-07-22T12:54:30;2.58;;;1.75;;
17510;SDS011;8873;48.818;9.422;2023-07-22T12:56:58;1.70;;;1.60;;
17510;SDS011;8873;48.818;9.422;2023-07-22T12:59:31;1.73;;;1.63;;
17510;SDS011;8873;48.818;9.422;2023-07-22T13:01:59;2.60;;;2.40;;
17510;SDS011;8873;48.818;9.422;2023-07-22T13:04:26;3.80;;;1.85;;
17510;SDS011;8873;48.818;9.422;2023-07-22T13:06:54;2.05;;;1.95;;
17510;SDS011;8873;48.818;9.422;2023-07-22T13:09:21;1.80;;;1.70;;
17510;SDS011;8873;48.818;9.422;2023-07-22T13:11:49;1.60;;;1.50;;
17510;SDS011;8873;48.818;9.422;2023-07-22T13:14:16;1.70;;;1.60;;
17510;SDS011;8873;48.818;9.422;2023-07-22T13:16:46;2.45;;;1.90;;
17510;SDS011;8873;48.818;9.422;2023-07-22T13:19:14;1.90;;;1.80;;
17510;SDS011;8873;48.818;9.422;2023-07-22T13:21:41;1.85;;;1.75;;
17510;SDS011;8873;48.818;9.422;2023-07-22T13:24:09;2.30;;;2.10;;
17510;SDS011;8873;48.818;9.422;2023-07-22T13:26:36;1.77;;;1.65;;
17510;SDS011;8873;48.818;9.422;2023-07-22T13:29:06;2.15;;;1.98;;
17510;SDS011;8873;48.818;9.422;2023-07-22T13:31:35;2.53;;;1.83;;
17510;SDS011;8873;48.818;9.422;2023-07-22T13:34:04;2.25;;;2.03;;
17510;SDS011;8873;48.818;9.422;2023-07-22T13:36:32;3.03;;;2.15;;
17510;SDS011;8873;48.818;9.422;2023-07-22T13:38:59;2.45;;;2.10;;
17510;SDS011;8873;48.818;9.422;2023-07-22T13:41:27;2.17;;;1.80;;
17510;SDS011;8873;48.818;9.422;2023-07-22T13:43:55;2.30;;;1.90;;
17510;SDS011;8873;48.818;9.422;2023-07-22T13:46:22;2.47;;;2.28;;
17510;SDS011;8873;48.818;9.422;2023-07-22T13:48:50;2.22;;;2.13;;
17510;SDS011;8873;48.818;9.422;2023-07-22T13:51:19;2.53;;;2.33;;
17510;SDS011;8873;48.818;9.422;2023-07-22T13:53:46;2.20;;;2.10;;
17510;SDS011;8873;48.818;9.422;2023-07-22T13:56:14;2.17;;;2.00;;
17510;SDS011;8873;48.818;9.422;2023-07-22T13:58:41;5.50;;;2.35;;
17510;SDS011;8873;48.818;9.422;2023-07-22T14:01:09;2.13;;;1.95;;
17510;SDS011;8873;48.818;9.422;2023-07-22T14:03:37;2.15;;;2.05;;
17510;SDS011;8873;48.818;9.422;2023-07-22T14:06:04;2.13;;;2.03;;
17510;SDS011;8873;48.818;9.422;2023-07-22T14:08:33;3.65;;;2.20;;
17510;SDS011;8873;48.818;9.422;2023-07-22T14:11:00;2.25;;;2.05;;
17510;SDS011;8873;48.818;9.422;2023-07-22T14:13:28;3.13;;;2.00;;
17510;SDS011;8873;48.818;9.422;2023-07-22T14:15:56;2.13;;;2.00;;
17510;SDS011;8873;48.818;9.422;2023-07-22T14:18:43;2.08;;;1.98;;
17510;SDS011;8873;48.818;9.422;2023-07-22T14:21:12;2.50;;;2.30;;
17510;SDS011;8873;48.818;9.422;2023-07-22T14:23:41;2.22;;;2.00;;
17510;SDS011;8873;48.818;9.422;2023-07-22T14:26:10;2.38;;;2.17;;
17510;SDS011;8873;48.818;9.422;2023-07-22T14:28:38;3.28;;;2.40;;
17510;SDS011;8873;48.818;9.422;2023-07-22T14:31:05;2.55;;;2.05;;
17510;SDS011;8873;48.818;9.422;2023-07-22T14:33:33;2.58;;;2.10;;
17510;SDS011;8873;48.818;9.422;2023-07-22T14:36:28;2.10;;;2.00;;
17510;SDS011;8873;48.818;9.422;2023-07-22T14:38:57;2.47;;;2.28;;
17510;SDS011;8873;48.818;9.422;2023-07-22T14:41:24;2.50;;;2.30;;
17510;SDS011;8873;48.818;9.422;2023-07-22T14:43:52;2.58;;;2.38;;
17510;SDS011;8873;48.818;9.422;2023-07-22T14:46:20;2.58;;;2.17;;
17510;SDS011;8873;48.818;9.422;2023-07-22T14:48:48;2.67;;;2.47;;
17510;SDS011;8873;48.818;9.422;2023-07-22T14:51:15;4.18;;;2.42;;
17510;SDS011;8873;48.818;9.422;2023-07-22T14:53:43;3.05;;;2.75;;
17510;SDS011;8873;48.818;9.422;2023-07-22T14:56:12;2.08;;;1.98;;
17510;SDS011;8873;48.818;9.422;2023-07-22T14:58:40;2.60;;;2.40;;
17510;SDS011;8873;48.818;9.422;2023-07-22T15:01:08;3.28;;;2.13;;
17510;SDS011;8873;48.818;9.422;2023-07-22T15:03:36;3.20;;;2.08;;
17510;SDS011;8873;48.818;9.422;2023-07-22T15:06:04;3.72;;;2.42;;
17510;SDS011;8873;48.818;9.422;2023-07-22T15:08:31;2.83;;;2.38;;